createdAt,value
2023-05-04T00:02:18.100Z,68.63
2023-05-04T00:04:47.711Z,68.68
2023-05-04T00:07:17.469Z,68.80
2023-05-04T00:09:46.450Z,68.85
2023-05-04T00:12:15.746Z,68.79
2023-05-04T00:14:45.476Z,68.75
2023-05-04T00:17:14.869Z,68.72
2023-05-04T00:19:46.059Z,68.76
2023-05-04T00:22:14.522Z,68.76
2023-05-04T00:24:44.049Z,68.79
2023-05-04T00:27:12.553Z,68.87
2023-05-04T00:29:41.194Z,68.93
2023-05-04T00:32:10.423Z,69.04
2023-05-04T00:34:39.240Z,69.25
2023-05-04T00:37:08.806Z,69.42
2023-05-04T00:39:37.799Z,69.52
2023-05-04T00:42:06.885Z,69.54
2023-05-04T00:44:35.427Z,69.54
2023-05-04T00:47:04.645Z,69.68
2023-05-04T00:49:33.596Z,69.78
2023-05-04T00:52:02.357Z,69.90
2023-05-04T00:54:31.432Z,70.03
2023-05-04T00:57:02.050Z,70.20
2023-05-04T00:59:31.118Z,70.41
2023-05-04T01:01:59.726Z,70.69
2023-05-04T01:04:28.919Z,70.98
2023-05-04T01:07:11.988Z,71.21
2023-05-04T01:10:01.545Z,71.30
2023-05-04T01:12:39.117Z,71.50
2023-05-04T01:15:09.373Z,71.68
2023-05-04T01:17:38.805Z,71.87
2023-05-04T01:20:09.126Z,72.10
2023-05-04T01:22:39.621Z,72.24
2023-05-04T01:25:09.137Z,72.40
2023-05-04T01:28:01.827Z,72.55
2023-05-04T01:30:34.853Z,72.66
2023-05-04T01:33:03.817Z,72.79
2023-05-04T01:35:32.998Z,72.86
2023-05-04T01:38:02.247Z,72.98
2023-05-04T01:40:31.570Z,73.13
2023-05-04T01:43:00.551Z,73.17
2023-05-04T01:45:29.276Z,73.24
2023-05-04T01:47:58.021Z,73.39
2023-05-04T01:50:27.634Z,73.48
2023-05-04T01:52:56.352Z,73.61
2023-05-04T01:55:25.128Z,73.84
2023-05-04T01:57:55.066Z,74.04
2023-05-04T02:00:24.119Z,74.13
2023-05-04T02:02:53.032Z,74.46
2023-05-04T02:05:21.972Z,74.69
2023-05-04T02:07:50.660Z,74.95
2023-05-04T02:10:20.632Z,75.08
2023-05-04T02:12:49.342Z,75.30
2023-05-04T02:15:18.300Z,75.41
2023-05-04T02:17:47.992Z,75.51
2023-05-04T02:20:16.974Z,75.67
2023-05-04T02:22:48.873Z,75.91
2023-05-04T02:25:18.257Z,76.14
2023-05-04T02:27:48.006Z,76.41
2023-05-04T02:30:18.874Z,76.59
2023-05-04T02:32:47.429Z,76.77
2023-05-04T02:35:17.184Z,76.92
2023-05-04T02:37:47.331Z,77.12
2023-05-04T02:40:16.191Z,77.22
2023-05-04T02:42:44.804Z,77.23
2023-05-04T02:45:19.971Z,77.23
2023-05-04T02:47:48.655Z,77.33
2023-05-04T02:50:18.433Z,77.55
2023-05-04T02:52:47.044Z,77.74
2023-05-04T02:55:17.253Z,78.05
2023-05-04T02:57:45.661Z,78.29
2023-05-04T03:00:14.933Z,78.47
2023-05-04T03:02:44.076Z,78.69
2023-05-04T03:05:13.097Z,78.80
2023-05-04T03:07:42.763Z,78.97
2023-05-04T03:10:11.167Z,79.09
2023-05-04T03:12:40.968Z,79.19
2023-05-04T03:15:10.418Z,79.34
2023-05-04T03:17:41.287Z,79.43
2023-05-04T03:20:12.806Z,79.44
2023-05-04T03:22:42.143Z,79.48
2023-05-04T03:25:11.713Z,79.37
2023-05-04T03:27:42.414Z,79.45
2023-05-04T03:30:12.678Z,79.53
2023-05-04T03:32:43.132Z,79.47
2023-05-04T03:35:13.048Z,79.46
2023-05-04T03:37:42.689Z,79.59
2023-05-04T03:40:13.178Z,79.72
2023-05-04T03:42:41.914Z,79.78
2023-05-04T03:45:12.086Z,79.83
2023-05-04T03:47:40.963Z,79.89
2023-05-04T03:50:10.779Z,79.77
2023-05-04T03:52:39.340Z,79.71
2023-05-04T03:55:09.954Z,79.85
2023-05-04T03:57:38.861Z,79.89
2023-05-04T04:00:09.068Z,80.03
2023-05-04T04:02:39.858Z,79.99
2023-05-04T04:05:09.770Z,80.01
2023-05-04T04:07:41.164Z,79.93
2023-05-04T04:10:11.035Z,79.68
2023-05-04T04:12:39.484Z,79.55
2023-05-04T04:15:09.159Z,79.43
2023-05-04T04:17:37.632Z,79.35
2023-05-04T04:20:08.805Z,79.21
2023-05-04T04:22:39.977Z,79.05
2023-05-04T04:25:10.170Z,78.73
2023-05-04T04:27:40.994Z,78.47
2023-05-04T04:30:13.359Z,78.45
2023-05-04T04:32:41.969Z,78.33
2023-05-04T04:35:10.628Z,78.10
2023-05-04T04:37:39.323Z,77.98
2023-05-04T04:40:09.920Z,77.79
2023-05-04T04:42:39.637Z,77.66
2023-05-04T04:45:09.847Z,77.24
2023-05-04T04:47:39.931Z,77.30
2023-05-04T04:50:10.113Z,77.17
2023-05-04T04:52:40.441Z,77.16
2023-05-04T04:55:10.180Z,77.18
2023-05-04T04:57:40.056Z,76.90
2023-05-04T05:00:09.952Z,76.56
2023-05-04T05:02:38.699Z,76.26
2023-05-04T05:05:08.909Z,76.19
2023-05-04T05:07:38.032Z,76.06
2023-05-04T05:10:08.311Z,75.80
2023-05-04T05:12:37.024Z,75.36
2023-05-04T05:15:07.143Z,75.17
2023-05-04T05:17:37.159Z,75.20
2023-05-04T05:20:08.911Z,75.28
2023-05-04T05:22:38.940Z,75.00
2023-05-04T05:25:08.545Z,74.86
2023-05-04T05:27:37.583Z,74.31
2023-05-04T05:30:08.536Z,73.46
2023-05-04T05:32:38.183Z,72.87
2023-05-04T05:35:09.199Z,72.40
2023-05-04T05:37:38.053Z,72.11
2023-05-04T05:40:09.284Z,72.28
2023-05-04T05:42:41.993Z,71.92
2023-05-04T05:45:11.893Z,71.64
2023-05-04T05:47:40.691Z,71.45
2023-05-04T05:50:10.756Z,70.96
2023-05-04T05:52:39.826Z,70.63
2023-05-04T05:55:10.472Z,70.32
2023-05-04T05:57:39.958Z,69.82
2023-05-04T06:00:09.611Z,69.78
2023-05-04T06:02:41.802Z,69.79
2023-05-04T06:05:11.207Z,69.76
2023-05-04T06:07:40.236Z,69.52
2023-05-04T06:10:10.625Z,69.44
2023-05-04T06:12:39.313Z,69.10
2023-05-04T06:15:09.415Z,68.59
2023-05-04T06:17:40.245Z,68.39
2023-05-04T06:20:10.760Z,68.10
2023-05-04T06:22:39.973Z,67.95
2023-05-04T06:25:11.157Z,67.76
2023-05-04T06:27:40.272Z,67.18
2023-05-04T06:30:10.345Z,67.25
2023-05-04T06:32:39.362Z,66.45
2023-05-04T06:35:09.203Z,65.49
2023-05-04T06:37:37.878Z,65.04
2023-05-04T06:40:07.875Z,64.28
2023-05-04T06:42:36.699Z,63.58
2023-05-04T06:45:06.853Z,62.80
2023-05-04T06:47:37.362Z,62.39
2023-05-04T06:50:11.642Z,61.83
2023-05-04T06:52:43.344Z,60.49
2023-05-04T06:55:12.166Z,58.71
2023-05-04T06:57:40.944Z,58.46
2023-05-04T07:00:10.962Z,57.88
2023-05-04T07:02:39.776Z,56.90
2023-05-04T07:05:09.779Z,55.54
2023-05-04T07:07:39.297Z,54.50
2023-05-04T07:10:09.390Z,54.93
2023-05-04T07:12:38.603Z,53.63
2023-05-04T07:15:11.029Z,53.78
2023-05-04T07:17:40.582Z,53.39
2023-05-04T07:20:10.906Z,53.30
2023-05-04T07:22:39.697Z,53.36
2023-05-04T07:25:09.523Z,53.28
2023-05-04T07:27:44.041Z,53.13
2023-05-04T07:30:13.755Z,52.81
2023-05-04T07:32:42.755Z,52.35
2023-05-04T07:35:11.931Z,51.31
2023-05-04T07:37:42.248Z,51.20
2023-05-04T07:40:14.380Z,50.26
2023-05-04T07:42:42.996Z,50.52
2023-05-04T07:45:11.780Z,50.86
2023-05-04T07:47:40.933Z,50.43
2023-05-04T07:50:10.709Z,50.36
2023-05-04T07:52:39.396Z,50.44
2023-05-04T07:55:09.676Z,50.12
2023-05-04T07:57:38.382Z,50.93
2023-05-04T08:00:10.518Z,50.83
2023-05-04T08:02:41.977Z,50.53
2023-05-04T08:05:13.065Z,50.27
2023-05-04T08:07:43.829Z,51.01
2023-05-04T08:10:12.713Z,51.43
2023-05-04T08:12:42.055Z,51.04
2023-05-04T08:15:11.956Z,50.38
2023-05-04T08:17:42.106Z,49.80
2023-05-04T08:20:12.296Z,48.98
2023-05-04T08:22:41.266Z,47.61
2023-05-04T08:25:10.842Z,46.77
2023-05-04T08:27:39.837Z,46.27
2023-05-04T08:30:10.658Z,45.76
2023-05-04T08:32:39.587Z,43.95
2023-05-04T08:35:08.922Z,44.24
2023-05-04T08:37:38.300Z,44.02
2023-05-04T08:40:08.422Z,44.20
2023-05-04T08:42:37.537Z,44.13
2023-05-04T08:45:07.531Z,44.03
2023-05-04T08:47:36.121Z,44.07
2023-05-04T08:50:07.180Z,44.12
2023-05-04T08:52:36.599Z,44.28
2023-05-04T08:55:06.781Z,44.04
2023-05-04T08:57:35.564Z,44.32
2023-05-04T09:00:05.209Z,44.52
2023-05-04T09:02:34.342Z,44.84
2023-05-04T09:05:03.122Z,45.36
2023-05-04T09:07:32.724Z,45.93
2023-05-04T09:10:01.365Z,45.78
2023-05-04T09:12:31.177Z,45.50
2023-05-04T09:15:01.796Z,45.62
2023-05-04T09:17:31.665Z,45.96
2023-05-04T09:20:02.800Z,46.33
2023-05-04T09:22:32.893Z,46.70
2023-05-04T09:25:11.927Z,47.53
2023-05-04T09:27:44.688Z,47.49
2023-05-04T09:30:13.532Z,47.54
2023-05-04T09:32:46.868Z,47.67
2023-05-04T09:35:29.387Z,47.90
2023-05-04T09:37:48.804Z,48.13
2023-05-04T09:40:18.944Z,48.56
2023-05-04T09:42:47.356Z,48.73
2023-05-04T09:45:16.209Z,48.85
2023-05-04T09:47:44.936Z,48.91
2023-05-04T09:50:20.674Z,49.07
2023-05-04T09:52:49.182Z,49.07
2023-05-04T09:55:19.508Z,48.71
2023-05-04T09:57:50.652Z,48.71
2023-05-04T10:00:20.186Z,48.68
2023-05-04T10:02:53.600Z,48.49
2023-05-04T10:05:22.766Z,48.47
2023-05-04T10:07:52.624Z,48.46
2023-05-04T10:10:21.728Z,48.38
2023-05-04T10:12:50.271Z,48.26
2023-05-04T10:15:19.125Z,47.96
2023-05-04T10:18:19.257Z,47.67
2023-05-04T10:21:02.541Z,48.18
2023-05-04T10:24:04.429Z,47.79
2023-05-04T10:27:00.678Z,47.88
2023-05-04T10:29:32.572Z,48.26
2023-05-04T10:32:01.495Z,48.90
2023-05-04T10:34:33.220Z,48.83
2023-05-04T10:37:03.367Z,48.44
2023-05-04T10:39:33.205Z,47.67
2023-05-04T10:42:04.754Z,47.70
2023-05-04T10:44:52.746Z,48.10
2023-05-04T10:47:31.463Z,47.97
2023-05-04T10:50:10.438Z,47.40
2023-05-04T10:52:50.270Z,47.87
2023-05-04T10:55:22.212Z,48.55
2023-05-04T10:57:53.870Z,48.73
2023-05-04T11:00:22.754Z,48.96
2023-05-04T11:02:52.191Z,48.94
2023-05-04T11:05:21.042Z,48.94
2023-05-04T11:07:51.334Z,48.69
2023-05-04T11:10:25.284Z,48.55
2023-05-04T11:12:57.315Z,48.22
2023-05-04T11:15:26.373Z,48.65
2023-05-04T11:17:55.207Z,48.82
2023-05-04T11:20:25.308Z,49.22
2023-05-04T11:22:54.394Z,49.30
2023-05-04T11:25:29.823Z,49.24
2023-05-04T11:27:58.473Z,49.78
2023-05-04T11:30:35.752Z,50.08
2023-05-04T11:33:11.894Z,50.41
2023-05-04T11:35:41.894Z,50.75
2023-05-04T11:38:14.046Z,50.25
2023-05-04T11:40:47.492Z,50.59
2023-05-04T11:43:17.409Z,50.09
2023-05-04T11:45:47.418Z,49.95
2023-05-04T11:48:18.633Z,49.98
2023-05-04T11:50:47.728Z,50.43
2023-05-04T11:53:18.688Z,50.40
2023-05-04T11:55:47.231Z,50.82
2023-05-04T11:58:16.944Z,50.29
2023-05-04T12:00:46.639Z,50.82
2023-05-04T12:03:17.902Z,50.55
2023-05-04T12:05:55.137Z,50.70
2023-05-04T12:08:29.376Z,50.39
2023-05-04T12:11:21.829Z,50.40
2023-05-04T12:14:04.008Z,50.60
2023-05-04T12:16:35.496Z,50.87
2023-05-04T12:19:07.520Z,50.70
2023-05-04T12:21:36.568Z,50.63
2023-05-04T12:24:06.722Z,50.52
2023-05-04T12:26:35.494Z,50.98
2023-05-04T12:29:03.977Z,50.98
2023-05-04T12:31:32.876Z,50.78
2023-05-04T12:34:01.942Z,50.39
2023-05-04T12:36:31.065Z,50.74
2023-05-04T12:38:59.562Z,50.68
2023-05-04T12:41:28.843Z,50.80
2023-05-04T12:43:57.864Z,50.42
2023-05-04T12:46:26.768Z,50.78
2023-05-04T12:48:56.171Z,51.30
2023-05-04T12:51:24.980Z,51.57
2023-05-04T12:53:55.275Z,51.49
2023-05-04T12:56:24.904Z,51.43
2023-05-04T12:58:53.783Z,51.87
2023-05-04T13:01:22.356Z,52.00
2023-05-04T13:03:51.093Z,51.70
2023-05-04T13:06:20.049Z,51.95
2023-05-04T13:08:48.860Z,51.80
2023-05-04T13:11:19.155Z,52.23
2023-05-04T13:13:47.687Z,52.38
2023-05-04T13:16:16.718Z,52.69
2023-05-04T13:18:45.524Z,52.46
2023-05-04T13:21:14.587Z,52.66
2023-05-04T13:23:44.326Z,52.36
2023-05-04T13:26:13.148Z,52.07
2023-05-04T13:28:41.476Z,52.19
2023-05-04T13:31:10.630Z,52.01
2023-05-04T13:33:39.763Z,52.22
2023-05-04T13:36:10.543Z,52.31
2023-05-04T13:38:38.945Z,52.50
2023-05-04T13:41:07.570Z,52.74
2023-05-04T13:43:40.103Z,52.98
2023-05-04T13:46:08.745Z,52.88
2023-05-04T13:48:37.913Z,53.11
2023-05-04T13:51:06.584Z,53.36
2023-05-04T13:53:35.257Z,53.58
2023-05-04T13:56:05.106Z,53.92
2023-05-04T13:58:34.255Z,54.08
2023-05-04T14:01:03.135Z,54.22
2023-05-04T14:03:33.108Z,54.30
2023-05-04T14:06:02.202Z,54.63
2023-05-04T14:08:30.932Z,54.80
2023-05-04T14:10:59.347Z,54.77
2023-05-04T14:13:28.379Z,55.05
2023-05-04T14:15:59.710Z,55.17
2023-05-04T14:18:32.274Z,55.37
2023-05-04T14:21:01.253Z,55.46
2023-05-04T14:23:30.214Z,55.59
2023-05-04T14:26:01.450Z,55.86
2023-05-04T14:28:34.021Z,56.19
2023-05-04T14:31:05.462Z,56.48
2023-05-04T14:33:37.680Z,56.75
2023-05-04T14:36:08.227Z,57.03
2023-05-04T14:38:37.075Z,57.38
2023-05-04T14:41:05.733Z,57.57
2023-05-04T14:43:35.381Z,57.72
2023-05-04T14:46:04.321Z,57.86
2023-05-04T14:48:33.168Z,57.90
2023-05-04T14:51:02.261Z,57.95
2023-05-04T14:53:33.049Z,58.25
2023-05-04T14:56:04.083Z,58.43
2023-05-04T14:58:33.454Z,58.82
2023-05-04T15:01:02.752Z,59.00
2023-05-04T15:03:34.155Z,59.17
2023-05-04T15:06:03.873Z,59.35
2023-05-04T15:08:32.445Z,59.34
2023-05-04T15:11:01.350Z,59.49
2023-05-04T15:13:31.712Z,59.82
2023-05-04T15:16:00.260Z,59.90
2023-05-04T15:18:29.061Z,59.77
2023-05-04T15:20:57.554Z,59.89
2023-05-04T15:23:26.203Z,59.89
2023-05-04T15:25:55.155Z,59.92
2023-05-04T15:28:25.900Z,60.16
2023-05-04T15:30:54.516Z,60.49
2023-05-04T15:33:23.127Z,60.80
2023-05-04T15:35:51.553Z,60.99
2023-05-04T15:38:20.499Z,61.27
2023-05-04T15:40:49.289Z,61.48
2023-05-04T15:43:17.772Z,61.83
2023-05-04T15:45:46.215Z,62.09
2023-05-04T15:48:14.858Z,62.32
2023-05-04T15:50:43.924Z,62.45
2023-05-04T15:53:12.870Z,62.55
2023-05-04T15:55:41.607Z,62.74
2023-05-04T15:58:11.223Z,62.71
2023-05-04T16:00:39.857Z,62.92
2023-05-04T16:03:08.673Z,62.90
2023-05-04T16:05:38.575Z,62.89
2023-05-04T16:08:07.097Z,63.24
2023-05-04T16:10:37.635Z,63.16
2023-05-04T16:13:09.773Z,63.26
2023-05-04T16:15:38.693Z,63.42
2023-05-04T16:18:07.934Z,63.21
2023-05-04T16:20:36.804Z,63.18
2023-05-04T16:23:05.732Z,62.90
2023-05-04T16:25:34.547Z,62.86
2023-05-04T16:28:04.178Z,62.86
2023-05-04T16:30:34.069Z,62.86
2023-05-04T16:33:03.983Z,62.87
2023-05-04T16:35:32.589Z,62.56
2023-05-04T16:38:01.176Z,62.52
2023-05-04T16:40:31.750Z,62.59
2023-05-04T16:43:01.536Z,62.45
2023-05-04T16:45:31.699Z,62.54
2023-05-04T16:48:00.766Z,62.69
2023-05-04T16:50:32.435Z,62.62
2023-05-04T16:53:02.150Z,62.30
2023-05-04T16:55:31.202Z,62.02
2023-05-04T16:58:00.295Z,61.94
2023-05-04T17:00:28.821Z,61.97
2023-05-04T17:02:58.294Z,61.80
2023-05-04T17:05:27.501Z,61.68
2023-05-04T17:07:57.469Z,61.53
2023-05-04T17:10:26.266Z,61.22
2023-05-04T17:12:55.026Z,61.27
2023-05-04T17:15:23.803Z,61.20
2023-05-04T17:17:55.236Z,61.10
2023-05-04T17:20:25.755Z,60.87
2023-05-04T17:22:57.491Z,60.84
2023-05-04T17:25:27.232Z,60.92
2023-05-04T17:27:56.102Z,60.92
2023-05-04T17:30:25.648Z,60.99
2023-05-04T17:32:56.133Z,61.08
2023-05-04T17:35:26.609Z,61.09
2023-05-04T17:37:58.591Z,61.08
2023-05-04T17:40:27.212Z,61.00
2023-05-04T17:42:56.497Z,60.78
2023-05-04T17:45:25.364Z,60.84
2023-05-04T17:47:54.126Z,60.92
2023-05-04T17:50:24.057Z,61.00
2023-05-04T17:52:54.608Z,61.05
2023-05-04T17:55:27.561Z,61.08
2023-05-04T17:57:56.606Z,61.07
2023-05-04T18:00:25.533Z,61.10
2023-05-04T18:02:54.458Z,61.16
2023-05-04T18:05:24.518Z,61.02
2023-05-04T18:07:53.327Z,60.95
2023-05-04T18:10:22.587Z,61.04
2023-05-04T18:12:51.343Z,61.07
2023-05-04T18:15:20.404Z,61.13
2023-05-04T18:17:50.416Z,61.28
2023-05-04T18:20:18.947Z,61.32
2023-05-04T18:22:48.174Z,61.25
2023-05-04T18:25:17.415Z,61.24
2023-05-04T18:27:46.023Z,61.19
2023-05-04T18:30:15.478Z,61.23
2023-05-04T18:32:46.640Z,61.23
2023-05-04T18:35:16.902Z,61.04
2023-05-04T18:37:45.696Z,61.04
2023-05-04T18:40:14.312Z,61.01
2023-05-04T18:42:42.898Z,60.98
2023-05-04T18:45:15.329Z,60.79
2023-05-04T18:47:45.006Z,60.40
2023-05-04T18:50:14.308Z,59.95
2023-05-04T18:52:44.709Z,59.49
2023-05-04T18:55:13.326Z,59.21
2023-05-04T18:57:42.049Z,59.09
2023-05-04T19:00:13.757Z,59.01
2023-05-04T19:02:42.600Z,58.69
2023-05-04T19:05:14.342Z,58.34
2023-05-04T19:07:42.012Z,57.99
2023-05-04T19:10:11.788Z,57.98
2023-05-04T19:12:40.874Z,58.01
2023-05-04T19:15:10.416Z,57.91
2023-05-04T19:17:38.978Z,57.78
2023-05-04T19:20:10.156Z,57.67
2023-05-04T19:22:38.887Z,57.67
2023-05-04T19:25:13.692Z,57.69
2023-05-04T19:27:41.781Z,57.62
2023-05-04T19:30:11.215Z,57.91
2023-05-04T19:32:40.656Z,58.05
2023-05-04T19:35:10.031Z,58.19
2023-05-04T19:37:39.546Z,58.25
2023-05-04T19:40:09.500Z,58.31
2023-05-04T19:42:41.457Z,58.36
2023-05-04T19:45:10.511Z,58.57
2023-05-04T19:47:40.280Z,58.69
2023-05-04T19:50:10.483Z,58.63
2023-05-04T19:52:40.579Z,58.68
2023-05-04T19:55:10.786Z,58.70
2023-05-04T19:57:39.860Z,58.61
2023-05-04T20:00:09.995Z,58.38
2023-05-04T20:02:42.818Z,58.28
2023-05-04T20:05:12.333Z,58.27
2023-05-04T20:07:40.966Z,58.17
2023-05-04T20:10:09.993Z,58.23
2023-05-04T20:12:39.561Z,58.36
2023-05-04T20:15:09.216Z,58.44
2023-05-04T20:17:38.034Z,58.37
2023-05-04T20:20:11.300Z,58.40
2023-05-04T20:22:39.833Z,58.39
2023-05-04T20:25:10.437Z,58.21
2023-05-04T20:27:39.297Z,58.27
2023-05-04T20:30:10.329Z,58.21
2023-05-04T20:32:42.337Z,58.12
2023-05-04T20:35:11.430Z,58.21
2023-05-04T20:37:40.466Z,58.25
2023-05-04T20:40:10.702Z,58.19
2023-05-04T20:42:40.583Z,58.13
2023-05-04T20:45:10.089Z,58.14
2023-05-04T20:47:40.406Z,58.08
2023-05-04T20:50:10.830Z,57.85
2023-05-04T20:52:39.840Z,57.94
2023-05-04T20:55:09.995Z,57.98
2023-05-04T20:57:38.648Z,57.92
2023-05-04T21:00:11.203Z,57.88
2023-05-04T21:02:41.584Z,57.83
